NOZ3ET ENGM-ENVA
Flight info
| Callsign | NOZ3ET |
|---|---|
| Flight time | 0h 38m |
| Altitude | 32000 |
| Route | RIBBE DCT GIGNI DCT VEVOD |
| Aircraft | B738/M-SDE2E3FGHIRWXY/LB1 |
Departure
| Time | 2026-04-30 20:00 |
|---|---|
| Airport | Oslo-Gardermoen International Airport (ENGM) |
Arrival
| Time | 2026-04-30 20:38 |
|---|---|
| Airport | Trondheim Airport, Værnes (ENVA) |
| Time | Latitude | Longitude | Altitude | Speed | Heading |
|---|---|---|---|---|---|
| 2026-04-30 19:38 | 60.19496 | 11.09195 | 679 ft | 0 kts | 16° |
| 2026-04-30 19:53 | 60.19494 | 11.09193 | 684 ft | 2 kts | 16° |
| 2026-04-30 19:53 | 60.19469 | 11.09179 | 676 ft | 4 kts | 16° |
| 2026-04-30 19:53 | 60.19449 | 11.09167 | 677 ft | 0 kts | 16° |
| 2026-04-30 19:56 | 60.19452 | 11.09166 | 679 ft | 2 kts | 354° |
| 2026-04-30 19:56 | 60.19463 | 11.09111 | 683 ft | 7 kts | 274° |
| 2026-04-30 19:56 | 60.19475 | 11.08962 | 684 ft | 14 kts | 285° |
| 2026-04-30 19:56 | 60.19507 | 11.08736 | 679 ft | 19 kts | 285° |
| 2026-04-30 19:57 | 60.19534 | 11.08589 | 675 ft | 10 kts | 312° |
| 2026-04-30 19:57 | 60.19618 | 11.08580 | 677 ft | 19 kts | 15° |
| 2026-04-30 19:57 | 60.19785 | 11.08680 | 678 ft | 31 kts | 15° |
| 2026-04-30 19:57 | 60.19998 | 11.08802 | 679 ft | 32 kts | 16° |
| 2026-04-30 19:58 | 60.20205 | 11.08921 | 678 ft | 30 kts | 15° |
| 2026-04-30 19:58 | 60.20400 | 11.09031 | 681 ft | 28 kts | 15° |
| 2026-04-30 19:58 | 60.20558 | 11.09123 | 681 ft | 18 kts | 16° |
| 2026-04-30 19:58 | 60.20638 | 11.09113 | 681 ft | 11 kts | 300° |
| 2026-04-30 19:59 | 60.20662 | 11.08959 | 678 ft | 12 kts | 287° |
| 2026-04-30 19:59 | 60.20688 | 11.08782 | 675 ft | 13 kts | 286° |
| 2026-04-30 19:59 | 60.20609 | 11.08592 | 678 ft | 20 kts | 195° |
| 2026-04-30 20:00 | 60.20201 | 11.08357 | 676 ft | 102 kts | 196° |
| 2026-04-30 20:00 | 60.19286 | 11.07824 | 745 ft | 163 kts | 197° |
| 2026-04-30 20:00 | 60.18189 | 11.07157 | 1625 ft | 170 kts | 199° |
| 2026-04-30 20:00 | 60.16999 | 11.06337 | 2326 ft | 195 kts | 210° |
| 2026-04-30 20:01 | 60.15501 | 11.01545 | 3415 ft | 231 kts | 251° |
| 2026-04-30 20:01 | 60.14844 | 10.98385 | 3894 ft | 255 kts | 248° |
| 2026-04-30 20:01 | 60.14301 | 10.95008 | 5021 ft | 254 kts | 267° |
| 2026-04-30 20:02 | 60.15109 | 10.88246 | 7301 ft | 258 kts | 307° |
| 2026-04-30 20:02 | 60.16559 | 10.86045 | 8279 ft | 270 kts | 333° |
| 2026-04-30 20:03 | 60.20422 | 10.85793 | 10237 ft | 294 kts | 9° |
| 2026-04-30 20:03 | 60.22430 | 10.86772 | 10909 ft | 311 kts | 11° |
| 2026-04-30 20:03 | 60.24627 | 10.87937 | 11149 ft | 341 kts | 12° |
| 2026-04-30 20:03 | 60.26982 | 10.89214 | 11759 ft | 355 kts | 12° |
| 2026-04-30 20:04 | 60.29386 | 10.90516 | 12651 ft | 360 kts | 11° |
| 2026-04-30 20:04 | 60.31826 | 10.91826 | 13611 ft | 364 kts | 11° |
| 2026-04-30 20:04 | 60.34292 | 10.93133 | 14464 ft | 369 kts | 11° |
| 2026-04-30 20:05 | 60.39309 | 10.95762 | 16183 ft | 375 kts | 11° |
| 2026-04-30 20:05 | 60.41818 | 10.97068 | 16999 ft | 379 kts | 10° |
| 2026-04-30 20:05 | 60.46986 | 10.99757 | 18633 ft | 387 kts | 10° |
| 2026-04-30 20:06 | 60.49617 | 11.01128 | 19323 ft | 391 kts | 10° |
| 2026-04-30 20:06 | 60.52259 | 11.02509 | 20085 ft | 392 kts | 10° |
| 2026-04-30 20:06 | 60.54913 | 11.03897 | 20801 ft | 395 kts | 10° |
| 2026-04-30 20:06 | 60.57587 | 11.05297 | 21488 ft | 399 kts | 10° |
| 2026-04-30 20:07 | 60.60294 | 11.06716 | 22149 ft | 403 kts | 10° |
| 2026-04-30 20:07 | 60.62998 | 11.08136 | 22751 ft | 408 kts | 9° |
| 2026-04-30 20:07 | 60.68531 | 11.11052 | 24048 ft | 413 kts | 10° |
| 2026-04-30 20:08 | 60.71327 | 11.12531 | 24599 ft | 416 kts | 10° |
| 2026-04-30 20:08 | 60.74135 | 11.14018 | 25142 ft | 418 kts | 10° |
| 2026-04-30 20:08 | 60.76964 | 11.15519 | 25675 ft | 421 kts | 10° |
| 2026-04-30 20:08 | 60.79809 | 11.17031 | 26201 ft | 423 kts | 10° |
| 2026-04-30 20:09 | 60.82669 | 11.18553 | 26699 ft | 426 kts | 10° |
| 2026-04-30 20:09 | 60.85549 | 11.20089 | 27189 ft | 428 kts | 10° |
| 2026-04-30 20:09 | 60.91330 | 11.23179 | 28029 ft | 436 kts | 10° |
| 2026-04-30 20:10 | 60.97229 | 11.26346 | 29078 ft | 437 kts | 10° |
| 2026-04-30 20:10 | 61.00155 | 11.27927 | 29813 ft | 433 kts | 10° |
| 2026-04-30 20:10 | 61.03049 | 11.29492 | 30502 ft | 429 kts | 10° |
| 2026-04-30 20:11 | 61.08821 | 11.32614 | 31425 ft | 429 kts | 10° |
| 2026-04-30 20:11 | 61.11710 | 11.34179 | 31906 ft | 428 kts | 10° |
| 2026-04-30 20:11 | 61.14589 | 11.35742 | 32271 ft | 430 kts | 10° |
| 2026-04-30 20:12 | 61.20461 | 11.38933 | 32284 ft | 445 kts | 10° |
| 2026-04-30 20:12 | 61.23480 | 11.40582 | 32283 ft | 452 kts | 10° |
| 2026-04-30 20:13 | 61.29641 | 11.43965 | 32277 ft | 459 kts | 11° |
| 2026-04-30 20:13 | 61.35815 | 11.47351 | 32273 ft | 457 kts | 9° |
| 2026-04-30 20:14 | 61.42052 | 11.48580 | 32284 ft | 448 kts | 356° |
| 2026-04-30 20:14 | 61.48242 | 11.48463 | 32282 ft | 447 kts | 355° |
| 2026-04-30 20:15 | 61.54471 | 11.48375 | 32281 ft | 447 kts | 355° |
| 2026-04-30 20:15 | 61.60706 | 11.48367 | 32272 ft | 448 kts | 355° |
| 2026-04-30 20:16 | 61.66941 | 11.48388 | 32274 ft | 448 kts | 355° |
| 2026-04-30 20:16 | 61.73194 | 11.48412 | 32279 ft | 448 kts | 355° |
| 2026-04-30 20:17 | 61.79438 | 11.48434 | 32283 ft | 448 kts | 355° |
| 2026-04-30 20:17 | 61.85607 | 11.48454 | 32289 ft | 449 kts | 355° |
| 2026-04-30 20:18 | 61.91932 | 11.48469 | 32284 ft | 456 kts | 355° |
| 2026-04-30 20:18 | 61.98243 | 11.48497 | 32275 ft | 450 kts | 355° |
| 2026-04-30 20:19 | 62.03414 | 11.47941 | 32286 ft | 445 kts | 349° |
| 2026-04-30 20:19 | 62.06491 | 11.47231 | 32054 ft | 447 kts | 347° |
| 2026-04-30 20:19 | 62.09591 | 11.46446 | 31347 ft | 446 kts | 347° |
| 2026-04-30 20:19 | 62.12663 | 11.45667 | 30641 ft | 442 kts | 348° |
| 2026-04-30 20:20 | 62.15692 | 11.44918 | 30099 ft | 435 kts | 348° |
| 2026-04-30 20:20 | 62.18673 | 11.44199 | 29509 ft | 427 kts | 348° |
| 2026-04-30 20:20 | 62.21600 | 11.43507 | 28987 ft | 419 kts | 348° |
| 2026-04-30 20:20 | 62.24476 | 11.42831 | 28437 ft | 412 kts | 348° |
| 2026-04-30 20:21 | 62.27305 | 11.42167 | 27899 ft | 407 kts | 347° |
| 2026-04-30 20:21 | 62.30093 | 11.41512 | 27384 ft | 400 kts | 347° |
| 2026-04-30 20:21 | 62.32851 | 11.40862 | 26868 ft | 397 kts | 347° |
| 2026-04-30 20:21 | 62.35622 | 11.40200 | 26366 ft | 407 kts | 347° |
| 2026-04-30 20:22 | 62.38485 | 11.39505 | 25859 ft | 418 kts | 347° |
| 2026-04-30 20:22 | 62.41364 | 11.38819 | 25300 ft | 414 kts | 347° |
| 2026-04-30 20:22 | 62.44200 | 11.38155 | 24764 ft | 407 kts | 347° |
| 2026-04-30 20:22 | 62.46993 | 11.37502 | 24254 ft | 401 kts | 347° |
| 2026-04-30 20:23 | 62.49752 | 11.36851 | 23692 ft | 396 kts | 347° |
| 2026-04-30 20:23 | 62.52442 | 11.36212 | 23106 ft | 391 kts | 347° |
| 2026-04-30 20:23 | 62.55127 | 11.35572 | 22584 ft | 385 kts | 347° |
| 2026-04-30 20:23 | 62.57774 | 11.34938 | 22082 ft | 380 kts | 347° |
| 2026-04-30 20:24 | 62.60396 | 11.34307 | 21571 ft | 377 kts | 347° |
| 2026-04-30 20:24 | 62.62991 | 11.33681 | 21073 ft | 374 kts | 347° |
| 2026-04-30 20:24 | 62.65596 | 11.33047 | 20591 ft | 381 kts | 347° |
| 2026-04-30 20:24 | 62.68275 | 11.32387 | 20124 ft | 392 kts | 347° |
| 2026-04-30 20:25 | 62.73650 | 11.31096 | 19057 ft | 383 kts | 347° |
| 2026-04-30 20:25 | 62.76280 | 11.30465 | 18547 ft | 378 kts | 347° |
| 2026-04-30 20:26 | 62.81437 | 11.29214 | 17473 ft | 368 kts | 347° |
| 2026-04-30 20:26 | 62.86511 | 11.28376 | 16380 ft | 365 kts | 352° |
| 2026-04-30 20:26 | 62.89011 | 11.28255 | 15891 ft | 361 kts | 352° |
| 2026-04-30 20:27 | 62.93988 | 11.27996 | 14952 ft | 354 kts | 352° |
| 2026-04-30 20:27 | 62.98921 | 11.27639 | 14056 ft | 354 kts | 352° |
| 2026-04-30 20:28 | 63.03830 | 11.28776 | 13670 ft | 356 kts | 6° |
| 2026-04-30 20:28 | 63.08493 | 11.31168 | 13344 ft | 331 kts | 6° |
| 2026-04-30 20:29 | 63.12856 | 11.33186 | 13050 ft | 309 kts | 5° |
| 2026-04-30 20:30 | 63.18918 | 11.37218 | 12537 ft | 309 kts | 16° |
| 2026-04-30 20:30 | 63.24651 | 11.44085 | 11917 ft | 311 kts | 11° |
| 2026-04-30 20:31 | 63.30965 | 11.48618 | 9954 ft | 319 kts | 13° |
| 2026-04-30 20:32 | 63.37390 | 11.52449 | 7157 ft | 317 kts | 349° |
| 2026-04-30 20:32 | 63.41096 | 11.48193 | 5697 ft | 292 kts | 311° |
| 2026-04-30 20:33 | 63.42479 | 11.45073 | 5474 ft | 274 kts | 310° |
| 2026-04-30 20:33 | 63.44988 | 11.39384 | 5136 ft | 241 kts | 310° |
| 2026-04-30 20:33 | 63.45840 | 11.36419 | 4806 ft | 218 kts | 279° |
| 2026-04-30 20:34 | 63.45821 | 11.30070 | 4105 ft | 198 kts | 267° |
| 2026-04-30 20:34 | 63.45751 | 11.24370 | 3602 ft | 170 kts | 269° |
| 2026-04-30 20:35 | 63.45745 | 11.21838 | 3347 ft | 157 kts | 269° |
| 2026-04-30 20:35 | 63.45735 | 11.19381 | 2962 ft | 159 kts | 269° |
| 2026-04-30 20:35 | 63.45722 | 11.14652 | 2312 ft | 151 kts | 270° |
| 2026-04-30 20:36 | 63.45726 | 11.12324 | 2052 ft | 149 kts | 271° |
| 2026-04-30 20:36 | 63.45720 | 11.09996 | 1781 ft | 150 kts | 270° |
| 2026-04-30 20:36 | 63.45731 | 11.05178 | 1252 ft | 157 kts | 270° |
| 2026-04-30 20:37 | 63.45745 | 11.02791 | 998 ft | 151 kts | 270° |
| 2026-04-30 20:37 | 63.45750 | 11.00466 | 769 ft | 149 kts | 268° |
| 2026-04-30 20:37 | 63.45746 | 10.98134 | 514 ft | 149 kts | 269° |
| 2026-04-30 20:37 | 63.45753 | 10.95864 | 285 ft | 147 kts | 269° |
| 2026-04-30 20:38 | 63.45757 | 10.93548 | 64 ft | 149 kts | 268° |
| 2026-04-30 20:38 | 63.45761 | 10.91510 | 36 ft | 88 kts | 270° |
| 2026-04-30 20:38 | 63.45759 | 10.90710 | 33 ft | 39 kts | 262° |
| 2026-04-30 20:39 | 63.45603 | 10.90392 | 32 ft | 7 kts | 125° |
| 2026-04-30 20:39 | 63.45597 | 10.90496 | 32 ft | 9 kts | 91° |
| 2026-04-30 20:39 | 63.45596 | 10.90654 | 33 ft | 10 kts | 89° |
| 2026-04-30 20:40 | 63.45597 | 10.90998 | 34 ft | 13 kts | 90° |
| 2026-04-30 20:40 | 63.45596 | 10.91195 | 35 ft | 12 kts | 91° |
| 2026-04-30 20:40 | 63.45595 | 10.91386 | 37 ft | 12 kts | 91° |
| 2026-04-30 20:41 | 63.45572 | 10.91663 | 37 ft | 8 kts | 171° |
| 2026-04-30 20:41 | 63.45525 | 10.91663 | 38 ft | 2 kts | 179° |
| 2026-04-30 20:41 | 63.45512 | 10.91663 | 38 ft | 2 kts | 180° |
| 2026-04-30 20:41 | 63.45502 | 10.91663 | 38 ft | 1 kts | 180° |
| 2026-04-30 20:42 | 63.45500 | 10.91663 | 38 ft | 0 kts | 180° |